Thursday, September 20, 2018, 12:29 PM EDT
Back to Local

KBAF, Westfield Barnes Municipal

Location: Westfield, MA, United States Lat: 42.167
Local Time: 12:29 PM EDT (16:29 GMT) Lon: -72.717
Time Zone: US/Eastern Elev: 272 ft

Show me the last for .
Show Decoded

2018-09-20 11:53 METAR KBAF 201553Z VRB04KT 10SM SCT024 BKN029 BKN050 19/13 A3026 RMK AO2 SLP245
                 T01940128 =
2018-09-20 10:53 METAR KBAF 201453Z 06003KT 10SM OVC023 17/12 A3027 RMK AO2 SLP252 T01720122
                 51019 =
2018-09-20 09:53 METAR KBAF 201353Z 04007KT 10SM OVC023 17/12 A3026 RMK AO2 SLP246 T01720122 =
2018-09-20 08:53 METAR KBAF 201253Z 08003KT 10SM OVC025 17/13 A3024 RMK AO2 SLP240 T01670128 =
2018-09-20 07:53 METAR KBAF 201153Z VRB03KT 10SM SCT015 OVC022 16/15 A3022 RMK AO2 SLP233 70001
                 T01560150 10161 20150 53025 =
2018-09-20 06:53 METAR KBAF 201053Z 35004KT 10SM OVC024 15/14 A3019 RMK AO2 SLP222 T01500144 =
2018-09-20 06:07 METAR KBAF 201007Z AUTO 34005KT 10SM SCT008 OVC025 15/14 A3016 RMK AO2 T01500144
                 =
2018-09-20 05:53 METAR KBAF 200953Z AUTO 36004KT 10SM SCT010 BKN025 OVC035 16/14 A3016 RMK AO2
                 SLP211 T01560144 =
2018-09-20 05:42 METAR KBAF 200942Z AUTO 35004KT 10SM FEW008 BKN025 OVC035 16/14 A3016 RMK AO2
                 T01560144 =
2018-09-20 05:31 METAR KBAF 200931Z AUTO 36005KT 10SM BKN011 BKN025 OVC033 15/14 A3016 RMK AO2
                 T01500144 =
2018-09-20 05:18 METAR KBAF 200918Z AUTO 36006KT 10SM SCT008 BKN025 OVC032 16/14 A3015 RMK AO2
                 T01560144 =
2018-09-20 05:11 METAR KBAF 200911Z AUTO 36005KT 10SM SCT008 SCT012 OVC032 15/14 A3015 RMK AO2
                 T01500144 =
2018-09-20 05:04 METAR KBAF 200904Z AUTO 36005KT 10SM SCT008 BKN025 OVC032 16/14 A3015 RMK AO2
                 T01560144 =
2018-09-20 04:53 METAR KBAF 200853Z AUTO 36005KT 10SM SCT008 SCT025 OVC030 16/14 A3015 RMK AO2
                 SLP207 T01560144 51007 =
2018-09-20 04:25 METAR KBAF 200825Z AUTO 35006KT 10SM SCT024 OVC030 16/14 A3014 RMK AO2 T01560144
                 =
2018-09-20 03:53 METAR KBAF 200753Z AUTO 36004KT 10SM BKN020 OVC028 16/15 A3014 RMK AO2 SLP205
                 T01560150 =
2018-09-20 02:53 METAR KBAF 200653Z AUTO 03005KT 10SM OVC021 16/13 A3014 RMK AO2 SLP206 T01610133
                 =
2018-09-20 01:53 METAR KBAF 200553Z AUTO 03003KT 10SM OVC019 16/14 A3012 RMK AO2 SLP200 60001
                 T01610139 10189 20161 51011 =
2018-09-20 00:53 METAR KBAF 200453Z AUTO 06005KT 10SM OVC017 17/15 A3011 RMK AO2 SLP196 T01670150
                 402560167 =
2018-09-20 00:42 METAR KBAF 200442Z AUTO 08005KT 10SM OVC017 17/15 A3011 RMK AO2 T01670150 =
2018-09-20 00:31 METAR KBAF 200431Z AUTO 00000KT 10SM OVC014 17/16 A3011 RMK AO2 T01720156 =
2018-09-19 23:53 METAR KBAF 200353Z AUTO 07003KT 10SM BKN017 OVC021 17/16 A3010 RMK AO2 SLP193
                 T01720161 =
2018-09-19 22:53 METAR KBAF 200253Z AUTO 00000KT 10SM OVC020 17/17 A3009 RMK AO2 RAE18 SLP188
                 P0000 60001 T01720167 51022 =
2018-09-19 21:53 METAR KBAF 200153Z 00000KT 9SM -RA FEW009 BKN026 OVC031 17/17 A3008 RMK AO2
                 RAB12 SLP186 P0001 T01720167 =
2018-09-19 20:53 METAR KBAF 200053Z 06007KT 10SM BKN018 OVC024 18/16 A3007 RMK AO2 SLP180
                 T01830156 =
2018-09-19 19:53 METAR KBAF 192353Z VRB04KT 10SM OVC024 19/16 A3002 RMK AO2 SLP166 T01890156
                 10256 20189 53025 =
2018-09-19 19:35 METAR KBAF 192335Z 06004KT 10SM BKN025 BKN043 OVC055 19/16 A3002 RMK AO2
                 T01890156 =
2018-09-19 18:53 METAR KBAF 192253Z VRB04KT 10SM BKN042 OVC055 20/16 A3000 RMK AO2 SLP157
                 T02000161 =
2018-09-19 17:53 METAR KBAF 192153Z 08006KT 10SM BKN045 22/17 A2997 RMK AO2 SLP147 T02170172 =
2018-09-19 16:53 METAR KBAF 192053Z 09006KT 10SM BKN045 23/18 A2995 RMK AO2 SLP141 T02280178
                 53007 =
2018-09-19 15:53 METAR KBAF 191953Z 05005KT 10SM CLR 24/16 A2992 RMK AO2 SLP130 T02440156 =
2018-09-19 14:53 METAR KBAF 191853Z 04006KT 10SM CLR 25/16 A2993 RMK AO2 SLP132 T02500161 =
2018-09-19 13:53 METAR KBAF 191753Z 05006KT 10SM CLR 24/17 A2993 RMK AO2 SLP133 T02440167 10256
                 20189 50001 =
2018-09-19 12:53 METAR KBAF 191653Z 03007KT 10SM BKN044 24/17 A2994 RMK AO2 SLP135 T02390167 =

Support USWX by starting your Amazon purchase here.